Terminal Aerodrome Forecast
Issued by NWS

Home | Current Version | Previous Version | Graphics & Text | Print | Product List | Glossary On
Versions: 1 2 3 4 5 6 7 8 9 10 11 12 13 14 15 16 17 18 19 20
000
FTUS43 KGRB 261700
TAFCWA
TAF
KCWA 261739Z 2618/2718 32010KT P6SM SCT021 SCT250
     FM262000 30009KT P6SM SCT120 BKN250
     FM270200 31003KT P6SM BKN150
     FM270500 35003KT P6SM SCT040 BKN120
     FM271200 02004KT P6SM SCT035=

USA.gov is the U.S. government's official web portal to all federal, state and local government web resources and services.